sensor_id;sensor_type;location;lat;lon;timestamp;temperature;humidity
12769;DHT22;6448;48.916;8.990;2023-01-24T00:10:11;8.40;58.40
12769;DHT22;6448;48.916;8.990;2023-01-24T00:11:10;8.40;58.50
12769;DHT22;6448;48.916;8.990;2023-01-24T00:13:13;8.30;58.40
12769;DHT22;6448;48.916;8.990;2023-01-24T00:14:37;8.50;58.50
12769;DHT22;6448;48.916;8.990;2023-01-24T00:17:21;8.30;58.40
12769;DHT22;6448;48.916;8.990;2023-01-24T00:18:35;8.30;58.50
12769;DHT22;6448;48.916;8.990;2023-01-24T00:20:35;8.30;58.50
12769;DHT22;6448;48.916;8.990;2023-01-24T00:21:55;8.40;58.60
12769;DHT22;6448;48.916;8.990;2023-01-24T00:23:19;8.30;58.60
12769;DHT22;6448;48.916;8.990;2023-01-24T00:24:57;8.60;58.70
12769;DHT22;6448;48.916;8.990;2023-01-24T00:26:21;8.50;58.70
12769;DHT22;6448;48.916;8.990;2023-01-24T00:27:54;8.30;58.60
12769;DHT22;6448;48.916;8.990;2023-01-24T00:29:38;8.50;58.70
12769;DHT22;6448;48.916;8.990;2023-01-24T00:31:10;8.30;58.50
12769;DHT22;6448;48.916;8.990;2023-01-24T00:32:35;8.30;58.50
12769;DHT22;6448;48.916;8.990;2023-01-24T00:34:03;8.40;58.50
12769;DHT22;6448;48.916;8.990;2023-01-24T00:37:25;8.30;58.50
12769;DHT22;6448;48.916;8.990;2023-01-24T00:39:18;8.30;58.50
12769;DHT22;6448;48.916;8.990;2023-01-24T00:40:38;8.40;58.50
12769;DHT22;6448;48.916;8.990;2023-01-24T00:43:57;8.40;58.50
12769;DHT22;6448;48.916;8.990;2023-01-24T00:45:48;8.20;58.50
12769;DHT22;6448;48.916;8.990;2023-01-24T00:47:49;8.30;58.40
12769;DHT22;6448;48.916;8.990;2023-01-24T00:49:24;8.30;58.40
12769;DHT22;6448;48.916;8.990;2023-01-24T00:50:56;8.30;58.50
12769;DHT22;6448;48.916;8.990;2023-01-24T00:52:35;8.20;58.30
12769;DHT22;6448;48.916;8.990;2023-01-24T00:53:59;8.30;58.20
12769;DHT22;6448;48.916;8.990;2023-01-24T00:55:27;8.50;58.50
12769;DHT22;6448;48.916;8.990;2023-01-24T00:56:59;8.30;58.30
12769;DHT22;6448;48.916;8.990;2023-01-24T00:58:15;8.30;58.20
12769;DHT22;6448;48.916;8.990;2023-01-24T00:59:31;8.40;58.30
12769;DHT22;6448;48.916;8.990;2023-01-24T01:00:58;8.30;58.20
12769;DHT22;6448;48.916;8.990;2023-01-24T01:02:09;8.50;58.40
12769;DHT22;6448;48.916;8.990;2023-01-24T01:05:32;8.50;58.40
12769;DHT22;6448;48.916;8.990;2023-01-24T01:06:37;8.30;58.40
12769;DHT22;6448;48.916;8.990;2023-01-24T01:08:46;8.30;58.40
12769;DHT22;6448;48.916;8.990;2023-01-24T01:10:11;8.30;58.50
12769;DHT22;6448;48.916;8.990;2023-01-24T01:11:47;8.20;58.50
12769;DHT22;6448;48.916;8.990;2023-01-24T01:13:36;8.80;59.40
12769;DHT22;6448;48.916;8.990;2023-01-24T01:15:10;8.50;58.50
12769;DHT22;6448;48.916;8.990;2023-01-24T01:16:50;8.30;58.50
12769;DHT22;6448;48.916;8.990;2023-01-24T01:18:29;8.30;58.40
12769;DHT22;6448;48.916;8.990;2023-01-24T01:20:10;8.30;58.40
12769;DHT22;6448;48.916;8.990;2023-01-24T01:21:42;8.20;58.40
12769;DHT22;6448;48.916;8.990;2023-01-24T01:23:16;8.30;58.40
12769;DHT22;6448;48.916;8.990;2023-01-24T01:25:08;8.20;58.30
12769;DHT22;6448;48.916;8.990;2023-01-24T01:26:58;8.10;58.20
12769;DHT22;6448;48.916;8.990;2023-01-24T01:28:44;8.50;58.50
12769;DHT22;6448;48.916;8.990;2023-01-24T01:30:40;8.20;58.50
12769;DHT22;6448;48.916;8.990;2023-01-24T01:32:35;8.30;58.50
12769;DHT22;6448;48.916;8.990;2023-01-24T01:34:16;8.40;58.50
12769;DHT22;6448;48.916;8.990;2023-01-24T01:35:58;8.20;58.30
12769;DHT22;6448;48.916;8.990;2023-01-24T01:37:36;8.20;58.30
12769;DHT22;6448;48.916;8.990;2023-01-24T01:39:12;8.30;58.30
12769;DHT22;6448;48.916;8.990;2023-01-24T01:40:34;8.40;58.40
12769;DHT22;6448;48.916;8.990;2023-01-24T01:41:51;8.30;58.30
12769;DHT22;6448;48.916;8.990;2023-01-24T01:43:36;8.40;58.40
12769;DHT22;6448;48.916;8.990;2023-01-24T01:50:38;8.50;58.50
12769;DHT22;6448;48.916;8.990;2023-01-24T01:55:05;8.30;58.50
12769;DHT22;6448;48.916;8.990;2023-01-24T02:05:53;8.30;58.30
12769;DHT22;6448;48.916;8.990;2023-01-24T02:10:11;8.30;58.50
12769;DHT22;6448;48.916;8.990;2023-01-24T02:14:38;8.10;58.40
12769;DHT22;6448;48.916;8.990;2023-01-24T02:16:52;8.40;58.50
12769;DHT22;6448;48.916;8.990;2023-01-24T02:18:47;8.40;59.20
12769;DHT22;6448;48.916;8.990;2023-01-24T02:20:36;8.30;58.40
12769;DHT22;6448;48.916;8.990;2023-01-24T02:25:01;8.30;58.40
12769;DHT22;6448;48.916;8.990;2023-01-24T02:26:58;8.40;58.20
12769;DHT22;6448;48.916;8.990;2023-01-24T02:29:00;8.30;58.20
12769;DHT22;6448;48.916;8.990;2023-01-24T02:35:05;8.30;58.30
12769;DHT22;6448;48.916;8.990;2023-01-24T02:43:11;8.40;58.40
12769;DHT22;6448;48.916;8.990;2023-01-24T02:57:52;8.30;58.40
12769;DHT22;6448;48.916;8.990;2023-01-24T02:59:19;8.30;58.30
12769;DHT22;6448;48.916;8.990;2023-01-24T03:01:07;8.50;58.40
12769;DHT22;6448;48.916;8.990;2023-01-24T03:02:49;8.40;58.30
12769;DHT22;6448;48.916;8.990;2023-01-24T03:04:06;8.40;58.50
12769;DHT22;6448;48.916;8.990;2023-01-24T03:05:28;8.30;58.40
12769;DHT22;6448;48.916;8.990;2023-01-24T03:06:51;8.40;58.40
12769;DHT22;6448;48.916;8.990;2023-01-24T03:08:22;8.30;58.30
12769;DHT22;6448;48.916;8.990;2023-01-24T03:10:04;8.20;58.20
12769;DHT22;6448;48.916;8.990;2023-01-24T03:13:39;8.50;58.30
12769;DHT22;6448;48.916;8.990;2023-01-24T03:15:15;8.30;58.20
12769;DHT22;6448;48.916;8.990;2023-01-24T03:16:41;8.40;58.20
12769;DHT22;6448;48.916;8.990;2023-01-24T03:18:33;8.50;58.20
12769;DHT22;6448;48.916;8.990;2023-01-24T03:20:23;8.30;58.40
12769;DHT22;6448;48.916;8.990;2023-01-24T03:21:48;8.50;58.50
12769;DHT22;6448;48.916;8.990;2023-01-24T03:23:34;8.30;58.30
12769;DHT22;6448;48.916;8.990;2023-01-24T03:25:14;8.10;58.40
12769;DHT22;6448;48.916;8.990;2023-01-24T03:27:28;8.30;58.50
12769;DHT22;6448;48.916;8.990;2023-01-24T03:29:45;8.30;58.50
12769;DHT22;6448;48.916;8.990;2023-01-24T03:31:37;8.30;58.40
12769;DHT22;6448;48.916;8.990;2023-01-24T03:33:46;8.30;58.40
12769;DHT22;6448;48.916;8.990;2023-01-24T03:35:39;8.30;58.30
12769;DHT22;6448;48.916;8.990;2023-01-24T03:37:24;8.30;58.30
12769;DHT22;6448;48.916;8.990;2023-01-24T03:39:32;8.30;58.40
12769;DHT22;6448;48.916;8.990;2023-01-24T03:43:06;8.40;58.70
12769;DHT22;6448;48.916;8.990;2023-01-24T03:44:21;8.20;58.60
12769;DHT22;6448;48.916;8.990;2023-01-24T03:45:26;8.30;58.60
12769;DHT22;6448;48.916;8.990;2023-01-24T03:46:32;8.30;58.60
12769;DHT22;6448;48.916;8.990;2023-01-24T03:47:51;8.30;58.50
12769;DHT22;6448;48.916;8.990;2023-01-24T03:49:14;8.00;58.40
12769;DHT22;6448;48.916;8.990;2023-01-24T03:50:17;8.20;58.50
12769;DHT22;6448;48.916;8.990;2023-01-24T03:51:36;8.60;58.80
12769;DHT22;6448;48.916;8.990;2023-01-24T03:52:56;8.60;58.70
12769;DHT22;6448;48.916;8.990;2023-01-24T03:53:57;8.30;58.50
12769;DHT22;6448;48.916;8.990;2023-01-24T03:55:08;8.30;58.60
12769;DHT22;6448;48.916;8.990;2023-01-24T03:56:10;8.30;58.50
12769;DHT22;6448;48.916;8.990;2023-01-24T03:57:18;8.30;58.40
12769;DHT22;6448;48.916;8.990;2023-01-24T03:58:19;8.30;58.40
12769;DHT22;6448;48.916;8.990;2023-01-24T03:59:21;8.20;58.50
12769;DHT22;6448;48.916;8.990;2023-01-24T04:00:22;8.30;58.40
12769;DHT22;6448;48.916;8.990;2023-01-24T04:01:31;8.30;58.50
12769;DHT22;6448;48.916;8.990;2023-01-24T04:02:58;8.30;58.50
12769;DHT22;6448;48.916;8.990;2023-01-24T04:04:00;8.30;58.50
12769;DHT22;6448;48.916;8.990;2023-01-24T04:05:02;8.30;58.40
12769;DHT22;6448;48.916;8.990;2023-01-24T04:06:18;8.30;58.40
12769;DHT22;6448;48.916;8.990;2023-01-24T04:07:20;8.30;58.40
12769;DHT22;6448;48.916;8.990;2023-01-24T04:08:22;8.30;58.50
12769;DHT22;6448;48.916;8.990;2023-01-24T04:09:23;8.30;58.30
12769;DHT22;6448;48.916;8.990;2023-01-24T04:10:25;8.30;58.40
12769;DHT22;6448;48.916;8.990;2023-01-24T04:11:26;8.30;58.30
12769;DHT22;6448;48.916;8.990;2023-01-24T04:12:35;8.30;58.40
12769;DHT22;6448;48.916;8.990;2023-01-24T04:13:37;8.30;58.50
12769;DHT22;6448;48.916;8.990;2023-01-24T04:14:39;8.30;58.50
12769;DHT22;6448;48.916;8.990;2023-01-24T04:15:45;8.30;58.40
12769;DHT22;6448;48.916;8.990;2023-01-24T04:17:07;8.30;58.40
12769;DHT22;6448;48.916;8.990;2023-01-24T04:18:17;8.30;58.30
12769;DHT22;6448;48.916;8.990;2023-01-24T04:19:20;8.50;58.50
12769;DHT22;6448;48.916;8.990;2023-01-24T04:20:22;8.30;58.30
12769;DHT22;6448;48.916;8.990;2023-01-24T04:21:24;8.30;58.40
12769;DHT22;6448;48.916;8.990;2023-01-24T04:22:25;8.30;58.40
12769;DHT22;6448;48.916;8.990;2023-01-24T04:23:30;8.40;58.40
12769;DHT22;6448;48.916;8.990;2023-01-24T04:24:31;8.40;58.40
12769;DHT22;6448;48.916;8.990;2023-01-24T04:25:33;8.30;58.40
12769;DHT22;6448;48.916;8.990;2023-01-24T04:26:36;8.40;58.50
12769;DHT22;6448;48.916;8.990;2023-01-24T04:27:40;8.20;58.30
12769;DHT22;6448;48.916;8.990;2023-01-24T04:28:47;8.40;58.50
12769;DHT22;6448;48.916;8.990;2023-01-24T04:29:48;8.30;58.40
12769;DHT22;6448;48.916;8.990;2023-01-24T04:30:56;8.30;58.50
12769;DHT22;6448;48.916;8.990;2023-01-24T04:32:09;8.10;58.40
12769;DHT22;6448;48.916;8.990;2023-01-24T04:33:21;8.20;58.40
12769;DHT22;6448;48.916;8.990;2023-01-24T04:34:22;8.40;58.40
12769;DHT22;6448;48.916;8.990;2023-01-24T04:35:27;8.40;58.50
12769;DHT22;6448;48.916;8.990;2023-01-24T04:36:30;8.40;58.50
12769;DHT22;6448;48.916;8.990;2023-01-24T04:37:33;8.50;58.60
12769;DHT22;6448;48.916;8.990;2023-01-24T04:38:35;8.30;58.50
12769;DHT22;6448;48.916;8.990;2023-01-24T04:39:50;8.20;58.50
12769;DHT22;6448;48.916;8.990;2023-01-24T04:40:57;8.20;58.50
12769;DHT22;6448;48.916;8.990;2023-01-24T04:41:58;8.20;58.60
12769;DHT22;6448;48.916;8.990;2023-01-24T04:43:00;8.40;58.60
12769;DHT22;6448;48.916;8.990;2023-01-24T04:44:01;8.20;58.50
12769;DHT22;6448;48.916;8.990;2023-01-24T04:45:04;8.20;58.50
12769;DHT22;6448;48.916;8.990;2023-01-24T04:46:05;8.20;58.50
12769;DHT22;6448;48.916;8.990;2023-01-24T04:47:21;8.40;58.50
12769;DHT22;6448;48.916;8.990;2023-01-24T04:48:22;8.30;58.50
12769;DHT22;6448;48.916;8.990;2023-01-24T04:49:24;8.30;58.50
12769;DHT22;6448;48.916;8.990;2023-01-24T04:50:26;8.20;58.50
12769;DHT22;6448;48.916;8.990;2023-01-24T04:51:28;8.30;58.60
12769;DHT22;6448;48.916;8.990;2023-01-24T04:52:29;8.20;58.50
12769;DHT22;6448;48.916;8.990;2023-01-24T04:53:41;8.30;58.60
12769;DHT22;6448;48.916;8.990;2023-01-24T04:54:42;8.10;58.30
12769;DHT22;6448;48.916;8.990;2023-01-24T04:55:44;8.60;58.60
12769;DHT22;6448;48.916;8.990;2023-01-24T04:56:44;8.30;58.40
12769;DHT22;6448;48.916;8.990;2023-01-24T04:57:46;8.30;58.50
12769;DHT22;6448;48.916;8.990;2023-01-24T04:58:47;8.40;58.50
12769;DHT22;6448;48.916;8.990;2023-01-24T04:59:49;8.30;58.50
12769;DHT22;6448;48.916;8.990;2023-01-24T05:00:52;8.30;58.50
12769;DHT22;6448;48.916;8.990;2023-01-24T05:01:54;8.30;58.50
12769;DHT22;6448;48.916;8.990;2023-01-24T05:03:04;8.30;58.40
12769;DHT22;6448;48.916;8.990;2023-01-24T05:04:06;8.30;58.50
12769;DHT22;6448;48.916;8.990;2023-01-24T05:05:08;8.40;58.50
12769;DHT22;6448;48.916;8.990;2023-01-24T05:06:12;8.30;58.50
12769;DHT22;6448;48.916;8.990;2023-01-24T05:07:14;8.40;58.50
12769;DHT22;6448;48.916;8.990;2023-01-24T05:08:18;8.30;58.40
12769;DHT22;6448;48.916;8.990;2023-01-24T05:09:20;8.50;58.60
12769;DHT22;6448;48.916;8.990;2023-01-24T05:10:25;8.30;58.50
12769;DHT22;6448;48.916;8.990;2023-01-24T05:11:27;8.30;58.50
12769;DHT22;6448;48.916;8.990;2023-01-24T05:12:32;8.30;58.50
12769;DHT22;6448;48.916;8.990;2023-01-24T05:13:39;8.40;58.60
12769;DHT22;6448;48.916;8.990;2023-01-24T05:14:39;8.70;58.70
12769;DHT22;6448;48.916;8.990;2023-01-24T05:15:46;8.30;58.50
12769;DHT22;6448;48.916;8.990;2023-01-24T05:16:48;8.40;58.50
12769;DHT22;6448;48.916;8.990;2023-01-24T05:17:50;8.30;58.40
12769;DHT22;6448;48.916;8.990;2023-01-24T05:18:53;8.30;58.40
12769;DHT22;6448;48.916;8.990;2023-01-24T05:19:56;8.30;58.40
12769;DHT22;6448;48.916;8.990;2023-01-24T05:21:04;8.20;58.40
12769;DHT22;6448;48.916;8.990;2023-01-24T05:22:08;8.30;58.50
12769;DHT22;6448;48.916;8.990;2023-01-24T05:23:13;8.20;58.40
12769;DHT22;6448;48.916;8.990;2023-01-24T05:24:19;8.30;58.40
12769;DHT22;6448;48.916;8.990;2023-01-24T05:25:20;8.30;58.40
12769;DHT22;6448;48.916;8.990;2023-01-24T05:26:26;8.40;58.50
12769;DHT22;6448;48.916;8.990;2023-01-24T05:27:35;8.30;58.50
12769;DHT22;6448;48.916;8.990;2023-01-24T05:28:42;8.30;58.50
12769;DHT22;6448;48.916;8.990;2023-01-24T05:29:46;8.40;58.40
12769;DHT22;6448;48.916;8.990;2023-01-24T05:30:51;8.30;58.50
12769;DHT22;6448;48.916;8.990;2023-01-24T05:32:29;8.30;58.50
12769;DHT22;6448;48.916;8.990;2023-01-24T05:43:58;8.30;58.50
12769;DHT22;6448;48.916;8.990;2023-01-24T05:45:17;8.30;58.50
12769;DHT22;6448;48.916;8.990;2023-01-24T05:46:21;8.40;58.50
12769;DHT22;6448;48.916;8.990;2023-01-24T05:47:32;8.30;58.50
12769;DHT22;6448;48.916;8.990;2023-01-24T05:48:34;8.40;58.30
12769;DHT22;6448;48.916;8.990;2023-01-24T05:49:36;8.30;58.40
12769;DHT22;6448;48.916;8.990;2023-01-24T05:50:38;8.30;58.30
12769;DHT22;6448;48.916;8.990;2023-01-24T05:51:48;8.20;58.30
12769;DHT22;6448;48.916;8.990;2023-01-24T05:53:01;8.60;58.60
12769;DHT22;6448;48.916;8.990;2023-01-24T05:54:02;8.30;58.40
12769;DHT22;6448;48.916;8.990;2023-01-24T05:55:24;8.30;58.50
12769;DHT22;6448;48.916;8.990;2023-01-24T05:56:27;8.40;58.50
12769;DHT22;6448;48.916;8.990;2023-01-24T05:57:29;8.30;58.50
12769;DHT22;6448;48.916;8.990;2023-01-24T05:58:58;8.30;58.60
12769;DHT22;6448;48.916;8.990;2023-01-24T06:00:02;8.30;58.60
12769;DHT22;6448;48.916;8.990;2023-01-24T06:01:06;8.30;58.60
12769;DHT22;6448;48.916;8.990;2023-01-24T06:02:14;8.20;58.60
12769;DHT22;6448;48.916;8.990;2023-01-24T06:03:19;8.50;58.70
12769;DHT22;6448;48.916;8.990;2023-01-24T06:04:20;8.30;58.50
12769;DHT22;6448;48.916;8.990;2023-01-24T06:05:22;8.30;58.50
12769;DHT22;6448;48.916;8.990;2023-01-24T06:06:25;8.30;58.50
12769;DHT22;6448;48.916;8.990;2023-01-24T06:07:30;8.30;58.60
12769;DHT22;6448;48.916;8.990;2023-01-24T06:08:37;8.30;58.60
12769;DHT22;6448;48.916;8.990;2023-01-24T06:09:49;8.40;58.60
12769;DHT22;6448;48.916;8.990;2023-01-24T06:10:52;8.30;58.50
12769;DHT22;6448;48.916;8.990;2023-01-24T06:37:35;8.30;58.50
12769;DHT22;6448;48.916;8.990;2023-01-24T06:38:38;8.30;58.60
12769;DHT22;6448;48.916;8.990;2023-01-24T06:39:49;8.30;58.60
12769;DHT22;6448;48.916;8.990;2023-01-24T06:40:55;8.30;58.60
12769;DHT22;6448;48.916;8.990;2023-01-24T06:41:57;8.30;58.60
12769;DHT22;6448;48.916;8.990;2023-01-24T06:42:59;8.30;59.20
12769;DHT22;6448;48.916;8.990;2023-01-24T06:44:01;8.30;58.60
12769;DHT22;6448;48.916;8.990;2023-01-24T06:45:01;8.30;58.60
12769;DHT22;6448;48.916;8.990;2023-01-24T06:46:03;8.30;58.70
12769;DHT22;6448;48.916;8.990;2023-01-24T06:47:04;8.30;58.60
12769;DHT22;6448;48.916;8.990;2023-01-24T06:48:10;8.30;58.70
12769;DHT22;6448;48.916;8.990;2023-01-24T06:49:11;8.30;58.60
12769;DHT22;6448;48.916;8.990;2023-01-24T06:50:16;8.30;58.70
12769;DHT22;6448;48.916;8.990;2023-01-24T06:51:17;8.30;58.70
12769;DHT22;6448;48.916;8.990;2023-01-24T06:52:20;8.30;58.60
12769;DHT22;6448;48.916;8.990;2023-01-24T06:53:22;8.30;58.60
12769;DHT22;6448;48.916;8.990;2023-01-24T06:54:23;8.30;58.50
12769;DHT22;6448;48.916;8.990;2023-01-24T06:55:25;8.30;58.50
12769;DHT22;6448;48.916;8.990;2023-01-24T06:56:26;8.30;58.50
12769;DHT22;6448;48.916;8.990;2023-01-24T06:57:28;8.30;58.50
12769;DHT22;6448;48.916;8.990;2023-01-24T06:58:28;8.30;58.60
12769;DHT22;6448;48.916;8.990;2023-01-24T06:59:30;8.30;58.60
12769;DHT22;6448;48.916;8.990;2023-01-24T07:00:31;8.30;58.60
12769;DHT22;6448;48.916;8.990;2023-01-24T07:01:32;8.30;58.70
12769;DHT22;6448;48.916;8.990;2023-01-24T07:02:33;8.30;58.60
12769;DHT22;6448;48.916;8.990;2023-01-24T07:03:35;8.40;58.60
12769;DHT22;6448;48.916;8.990;2023-01-24T07:04:36;8.30;58.60
12769;DHT22;6448;48.916;8.990;2023-01-24T07:05:38;8.30;58.60
12769;DHT22;6448;48.916;8.990;2023-01-24T07:06:40;8.30;58.70
12769;DHT22;6448;48.916;8.990;2023-01-24T07:07:41;8.30;58.70
12769;DHT22;6448;48.916;8.990;2023-01-24T07:08:44;8.30;58.70
12769;DHT22;6448;48.916;8.990;2023-01-24T07:09:45;8.30;58.80
12769;DHT22;6448;48.916;8.990;2023-01-24T07:10:47;8.30;58.80
12769;DHT22;6448;48.916;8.990;2023-01-24T07:11:48;8.30;58.70
12769;DHT22;6448;48.916;8.990;2023-01-24T07:12:53;8.30;58.80
12769;DHT22;6448;48.916;8.990;2023-01-24T07:13:53;8.30;58.80
12769;DHT22;6448;48.916;8.990;2023-01-24T07:14:55;8.30;58.90
12769;DHT22;6448;48.916;8.990;2023-01-24T07:15:59;8.30;58.80
12769;DHT22;6448;48.916;8.990;2023-01-24T07:17:01;8.30;58.80
12769;DHT22;6448;48.916;8.990;2023-01-24T07:18:06;8.30;58.80
12769;DHT22;6448;48.916;8.990;2023-01-24T07:19:09;8.30;58.80
12769;DHT22;6448;48.916;8.990;2023-01-24T07:20:15;8.20;58.70
12769;DHT22;6448;48.916;8.990;2023-01-24T07:21:17;8.30;58.80
12769;DHT22;6448;48.916;8.990;2023-01-24T07:22:19;8.20;58.80
12769;DHT22;6448;48.916;8.990;2023-01-24T07:23:22;8.20;58.80
12769;DHT22;6448;48.916;8.990;2023-01-24T07:24:27;8.20;58.80
12769;DHT22;6448;48.916;8.990;2023-01-24T07:25:29;8.20;58.80
12769;DHT22;6448;48.916;8.990;2023-01-24T07:26:32;8.20;58.90
12769;DHT22;6448;48.916;8.990;2023-01-24T07:27:34;8.20;58.90
12769;DHT22;6448;48.916;8.990;2023-01-24T07:28:35;8.20;58.80
12769;DHT22;6448;48.916;8.990;2023-01-24T07:29:36;8.30;58.90
12769;DHT22;6448;48.916;8.990;2023-01-24T07:30:38;8.30;58.80
12769;DHT22;6448;48.916;8.990;2023-01-24T07:31:39;8.20;58.80
12769;DHT22;6448;48.916;8.990;2023-01-24T07:32:40;8.20;58.90
12769;DHT22;6448;48.916;8.990;2023-01-24T07:33:41;8.20;58.90
12769;DHT22;6448;48.916;8.990;2023-01-24T07:34:43;8.20;58.80
12769;DHT22;6448;48.916;8.990;2023-01-24T07:35:44;8.20;58.90
12769;DHT22;6448;48.916;8.990;2023-01-24T07:36:46;8.20;58.80
12769;DHT22;6448;48.916;8.990;2023-01-24T07:37:47;8.20;58.80
12769;DHT22;6448;48.916;8.990;2023-01-24T07:38:52;8.20;58.90
12769;DHT22;6448;48.916;8.990;2023-01-24T07:39:54;8.20;58.90
12769;DHT22;6448;48.916;8.990;2023-01-24T07:40:55;8.20;58.90
12769;DHT22;6448;48.916;8.990;2023-01-24T07:41:56;8.20;58.90
12769;DHT22;6448;48.916;8.990;2023-01-24T07:42:59;8.20;59.00
12769;DHT22;6448;48.916;8.990;2023-01-24T07:44:00;8.20;58.90
12769;DHT22;6448;48.916;8.990;2023-01-24T07:45:06;8.20;58.90
12769;DHT22;6448;48.916;8.990;2023-01-24T07:46:07;8.20;58.90
12769;DHT22;6448;48.916;8.990;2023-01-24T07:47:08;8.20;58.90
12769;DHT22;6448;48.916;8.990;2023-01-24T07:48:09;8.20;59.60
12769;DHT22;6448;48.916;8.990;2023-01-24T07:49:11;8.20;58.90
12769;DHT22;6448;48.916;8.990;2023-01-24T07:50:11;8.20;59.00
12769;DHT22;6448;48.916;8.990;2023-01-24T07:51:13;8.20;59.00
12769;DHT22;6448;48.916;8.990;2023-01-24T07:52:15;8.20;59.00
12769;DHT22;6448;48.916;8.990;2023-01-24T07:53:16;8.20;59.00
12769;DHT22;6448;48.916;8.990;2023-01-24T07:54:17;8.20;59.10
12769;DHT22;6448;48.916;8.990;2023-01-24T07:55:22;8.10;59.60
12769;DHT22;6448;48.916;8.990;2023-01-24T07:56:24;8.20;59.10
12769;DHT22;6448;48.916;8.990;2023-01-24T07:57:25;8.20;59.20
12769;DHT22;6448;48.916;8.990;2023-01-24T07:58:26;8.20;59.20
12769;DHT22;6448;48.916;8.990;2023-01-24T07:59:28;8.20;59.20
12769;DHT22;6448;48.916;8.990;2023-01-24T08:00:29;8.20;59.10
12769;DHT22;6448;48.916;8.990;2023-01-24T08:01:31;8.20;59.20
12769;DHT22;6448;48.916;8.990;2023-01-24T08:02:32;8.20;59.20
12769;DHT22;6448;48.916;8.990;2023-01-24T08:03:33;8.20;59.10
12769;DHT22;6448;48.916;8.990;2023-01-24T08:04:35;8.20;59.20
12769;DHT22;6448;48.916;8.990;2023-01-24T08:05:36;8.20;59.20
12769;DHT22;6448;48.916;8.990;2023-01-24T08:06:38;8.20;59.20
12769;DHT22;6448;48.916;8.990;2023-01-24T08:07:40;8.20;59.20
12769;DHT22;6448;48.916;8.990;2023-01-24T08:08:41;8.20;59.20
12769;DHT22;6448;48.916;8.990;2023-01-24T08:09:43;8.20;59.20
12769;DHT22;6448;48.916;8.990;2023-01-24T08:10:45;8.20;59.20
12769;DHT22;6448;48.916;8.990;2023-01-24T08:11:47;8.20;59.20
12769;DHT22;6448;48.916;8.990;2023-01-24T08:12:48;8.20;59.20
12769;DHT22;6448;48.916;8.990;2023-01-24T08:13:50;8.20;59.20
12769;DHT22;6448;48.916;8.990;2023-01-24T08:14:51;8.20;59.20
12769;DHT22;6448;48.916;8.990;2023-01-24T08:15:52;8.20;59.20
12769;DHT22;6448;48.916;8.990;2023-01-24T08:16:53;8.20;59.90
12769;DHT22;6448;48.916;8.990;2023-01-24T08:17:55;8.20;59.20
12769;DHT22;6448;48.916;8.990;2023-01-24T08:18:56;8.20;59.20
12769;DHT22;6448;48.916;8.990;2023-01-24T08:19:57;8.20;59.20
12769;DHT22;6448;48.916;8.990;2023-01-24T08:20:59;8.20;59.30
12769;DHT22;6448;48.916;8.990;2023-01-24T08:22:01;8.20;59.20
12769;DHT22;6448;48.916;8.990;2023-01-24T08:23:02;8.20;59.20
12769;DHT22;6448;48.916;8.990;2023-01-24T08:24:04;8.20;59.20
12769;DHT22;6448;48.916;8.990;2023-01-24T08:25:06;8.20;59.20
12769;DHT22;6448;48.916;8.990;2023-01-24T08:26:09;8.20;59.20
12769;DHT22;6448;48.916;8.990;2023-01-24T08:27:10;8.20;59.20
12769;DHT22;6448;48.916;8.990;2023-01-24T08:28:11;8.20;59.20
12769;DHT22;6448;48.916;8.990;2023-01-24T08:29:12;8.20;59.20
12769;DHT22;6448;48.916;8.990;2023-01-24T08:30:14;8.20;59.20
12769;DHT22;6448;48.916;8.990;2023-01-24T08:31:16;8.20;59.20
12769;DHT22;6448;48.916;8.990;2023-01-24T08:32:17;8.20;59.20
12769;DHT22;6448;48.916;8.990;2023-01-24T08:33:18;8.30;59.20
12769;DHT22;6448;48.916;8.990;2023-01-24T08:34:20;8.20;59.10
12769;DHT22;6448;48.916;8.990;2023-01-24T08:35:21;8.20;59.10
12769;DHT22;6448;48.916;8.990;2023-01-24T08:36:23;8.20;59.10
12769;DHT22;6448;48.916;8.990;2023-01-24T08:37:24;8.20;59.20
12769;DHT22;6448;48.916;8.990;2023-01-24T08:38:26;8.20;59.10
12769;DHT22;6448;48.916;8.990;2023-01-24T08:39:26;8.20;59.10
12769;DHT22;6448;48.916;8.990;2023-01-24T08:40:28;8.20;59.20
12769;DHT22;6448;48.916;8.990;2023-01-24T08:41:31;8.20;59.10
12769;DHT22;6448;48.916;8.990;2023-01-24T08:42:32;8.20;59.20
12769;DHT22;6448;48.916;8.990;2023-01-24T08:43:33;8.20;59.20
12769;DHT22;6448;48.916;8.990;2023-01-24T08:44:34;8.20;59.20
12769;DHT22;6448;48.916;8.990;2023-01-24T08:45:38;8.20;59.20
12769;DHT22;6448;48.916;8.990;2023-01-24T08:46:39;8.20;59.30
12769;DHT22;6448;48.916;8.990;2023-01-24T08:47:41;8.20;59.30
12769;DHT22;6448;48.916;8.990;2023-01-24T08:48:43;8.20;59.30
12769;DHT22;6448;48.916;8.990;2023-01-24T08:49:45;8.20;59.30
12769;DHT22;6448;48.916;8.990;2023-01-24T08:50:45;8.20;59.30
12769;DHT22;6448;48.916;8.990;2023-01-24T08:51:47;8.20;59.20
12769;DHT22;6448;48.916;8.990;2023-01-24T08:52:48;8.20;59.20
12769;DHT22;6448;48.916;8.990;2023-01-24T08:53:50;8.20;59.30
12769;DHT22;6448;48.916;8.990;2023-01-24T08:54:52;8.20;59.30
12769;DHT22;6448;48.916;8.990;2023-01-24T08:55:53;8.30;59.30
12769;DHT22;6448;48.916;8.990;2023-01-24T08:56:55;8.20;59.30
12769;DHT22;6448;48.916;8.990;2023-01-24T08:58:02;8.30;59.30
12769;DHT22;6448;48.916;8.990;2023-01-24T08:59:04;8.30;59.30
12769;DHT22;6448;48.916;8.990;2023-01-24T09:00:07;8.30;59.30
12769;DHT22;6448;48.916;8.990;2023-01-24T09:01:09;8.30;59.20
12769;DHT22;6448;48.916;8.990;2023-01-24T09:02:13;8.30;59.30
12769;DHT22;6448;48.916;8.990;2023-01-24T09:03:17;8.30;59.30
12769;DHT22;6448;48.916;8.990;2023-01-24T09:04:18;8.30;59.30
12769;DHT22;6448;48.916;8.990;2023-01-24T09:05:20;8.30;59.20
12769;DHT22;6448;48.916;8.990;2023-01-24T09:06:22;8.30;59.30
12769;DHT22;6448;48.916;8.990;2023-01-24T09:07:23;8.30;59.20
12769;DHT22;6448;48.916;8.990;2023-01-24T09:08:25;8.30;59.30
12769;DHT22;6448;48.916;8.990;2023-01-24T09:09:25;8.30;59.30
12769;DHT22;6448;48.916;8.990;2023-01-24T09:10:27;8.50;59.40
12769;DHT22;6448;48.916;8.990;2023-01-24T09:11:28;8.30;59.30
12769;DHT22;6448;48.916;8.990;2023-01-24T09:12:31;8.30;59.40
12769;DHT22;6448;48.916;8.990;2023-01-24T09:13:32;8.30;59.30
12769;DHT22;6448;48.916;8.990;2023-01-24T09:14:34;8.30;59.30
12769;DHT22;6448;48.916;8.990;2023-01-24T09:15:35;8.30;59.30
12769;DHT22;6448;48.916;8.990;2023-01-24T09:16:36;8.30;59.30
12769;DHT22;6448;48.916;8.990;2023-01-24T09:17:38;8.30;59.20
12769;DHT22;6448;48.916;8.990;2023-01-24T09:18:40;8.30;59.20
12769;DHT22;6448;48.916;8.990;2023-01-24T09:19:41;8.30;59.20
12769;DHT22;6448;48.916;8.990;2023-01-24T09:20:43;8.30;59.30
12769;DHT22;6448;48.916;8.990;2023-01-24T09:21:44;8.30;59.30
12769;DHT22;6448;48.916;8.990;2023-01-24T09:22:49;8.30;59.30
12769;DHT22;6448;48.916;8.990;2023-01-24T09:23:53;8.30;59.20
12769;DHT22;6448;48.916;8.990;2023-01-24T09:24:54;8.30;59.20
12769;DHT22;6448;48.916;8.990;2023-01-24T09:25:55;8.30;59.30
12769;DHT22;6448;48.916;8.990;2023-01-24T09:26:56;8.30;59.20
12769;DHT22;6448;48.916;8.990;2023-01-24T09:27:59;8.30;59.20
12769;DHT22;6448;48.916;8.990;2023-01-24T09:29:00;8.40;59.30
12769;DHT22;6448;48.916;8.990;2023-01-24T09:30:02;8.30;59.20
12769;DHT22;6448;48.916;8.990;2023-01-24T09:31:07;8.30;59.20
12769;DHT22;6448;48.916;8.990;2023-01-24T09:32:09;8.30;59.20
12769;DHT22;6448;48.916;8.990;2023-01-24T09:33:10;8.30;59.20
12769;DHT22;6448;48.916;8.990;2023-01-24T09:34:12;8.40;59.20
12769;DHT22;6448;48.916;8.990;2023-01-24T09:35:13;8.30;59.20